createdAt,value
2023-04-02T00:00:18.788Z,99377.21
2023-04-02T00:03:01.464Z,99379.20
2023-04-02T00:05:31.199Z,99376.40
2023-04-02T00:08:00.920Z,99373.86
2023-04-02T00:10:31.578Z,99374.14
2023-04-02T00:13:12.571Z,99375.66
2023-04-02T00:15:43.629Z,99371.58
2023-04-02T00:18:22.072Z,99371.29
2023-04-02T00:21:14.802Z,99373.94
2023-04-02T00:23:44.127Z,99373.33
2023-04-02T00:26:34.366Z,99374.92
2023-04-02T00:29:04.167Z,99374.11
2023-04-02T00:31:38.672Z,99373.75
2023-04-02T00:34:09.497Z,99372.03
2023-04-02T00:36:37.709Z,99372.21
2023-04-02T00:39:14.240Z,99371.87
2023-04-02T00:41:47.333Z,99374.90
2023-04-02T00:44:22.217Z,99375.43
2023-04-02T00:46:51.264Z,99373.91
2023-04-02T00:49:36.645Z,99376.59
2023-04-02T00:52:10.434Z,99375.27
2023-04-02T00:54:46.045Z,99375.70
2023-04-02T00:57:18.197Z,99376.77
2023-04-02T01:00:09.192Z,99376.83
2023-04-02T01:02:41.089Z,99377.14
2023-04-02T01:05:18.285Z,99382.39
2023-04-02T01:08:19.922Z,99381.85
2023-04-02T01:11:04.878Z,99381.15
2023-04-02T01:13:50.360Z,99382.65
2023-04-02T01:16:31.160Z,99381.95
2023-04-02T01:19:27.644Z,99384.36
2023-04-02T01:22:22.315Z,99385.36
2023-04-02T01:24:51.258Z,99382.98
2023-04-02T01:27:20.001Z,99383.55
2023-04-02T01:29:50.433Z,99382.96
2023-04-02T01:32:20.410Z,99384.25
2023-04-02T01:34:50.553Z,99384.84
2023-04-02T01:37:45.124Z,99386.67
2023-04-02T01:40:20.398Z,99387.33
2023-04-02T01:43:04.721Z,99390.88
2023-04-02T01:45:35.572Z,99390.30
2023-04-02T01:48:20.110Z,99389.16
2023-04-02T01:50:50.012Z,99394.34
2023-04-02T01:53:19.254Z,99392.26
2023-04-02T01:55:55.479Z,99389.73
2023-04-02T01:58:27.766Z,99393.66
2023-04-02T02:00:58.819Z,99393.97
2023-04-02T02:03:28.618Z,99394.54
2023-04-02T02:05:57.374Z,99395.98
2023-04-02T02:08:44.839Z,99395.23
2023-04-02T02:11:16.527Z,99394.23
2023-04-02T02:13:52.230Z,99394.92
2023-04-02T02:16:23.607Z,99392.09
2023-04-02T02:18:54.282Z,99392.25
2023-04-02T02:21:48.864Z,99392.73
2023-04-02T02:24:20.073Z,99392.15
2023-04-02T02:26:50.082Z,99390.71
2023-04-02T02:29:19.565Z,99392.33
2023-04-02T02:31:48.617Z,99393.84
2023-04-02T02:34:19.721Z,99391.39
2023-04-02T02:36:53.512Z,99389.05
2023-04-02T02:39:50.868Z,99393.20
2023-04-02T02:42:30.216Z,99389.77
2023-04-02T02:44:58.705Z,99395.27
2023-04-02T02:47:32.349Z,99400.27
2023-04-02T02:50:07.342Z,99397.48
2023-04-02T02:52:37.033Z,99399.71
2023-04-02T02:55:19.183Z,99397.84
2023-04-02T02:57:59.264Z,99401.76
2023-04-02T03:00:28.910Z,99400.63
2023-04-02T03:02:59.975Z,99400.73
2023-04-02T03:05:30.597Z,99400.63
2023-04-02T03:08:03.243Z,99399.07
2023-04-02T03:10:56.732Z,99403.30
2023-04-02T03:13:35.745Z,99406.94
2023-04-02T03:16:13.958Z,99406.98
2023-04-02T03:18:57.792Z,99411.98
2023-04-02T03:21:40.213Z,99413.13
2023-04-02T03:24:18.250Z,99415.23
2023-04-02T03:27:09.588Z,99418.73
2023-04-02T03:29:41.801Z,99418.10
2023-04-02T03:32:19.205Z,99416.61
2023-04-02T03:35:01.246Z,99418.64
2023-04-02T03:37:32.442Z,99421.14
2023-04-02T03:40:04.782Z,99421.29
2023-04-02T03:42:51.544Z,99424.49
2023-04-02T03:45:28.769Z,99425.67
2023-04-02T03:48:22.405Z,99426.59
2023-04-02T03:51:03.423Z,99430.95
2023-04-02T03:53:32.680Z,99435.17
2023-04-02T03:56:01.255Z,99436.27
2023-04-02T03:58:40.858Z,99434.81
2023-04-02T04:01:20.433Z,99434.49
2023-04-02T04:03:51.465Z,99435.08
2023-04-02T04:06:31.361Z,99439.22
2023-04-02T04:09:23.549Z,99437.18
2023-04-02T04:11:54.174Z,99440.33
2023-04-02T04:14:36.034Z,99439.69
2023-04-02T04:17:38.787Z,99440.43
2023-04-02T04:20:25.708Z,99439.08
2023-04-02T04:22:58.302Z,99441.88
2023-04-02T04:25:34.330Z,99446.54
2023-04-02T04:28:40.257Z,99449.36
2023-04-02T04:31:21.849Z,99454.91
2023-04-02T04:34:03.724Z,99451.91
2023-04-02T04:36:36.462Z,99453.40
2023-04-02T04:39:14.814Z,99452.92
2023-04-02T04:41:46.988Z,99454.52
2023-04-02T04:44:24.473Z,99457.86
2023-04-02T04:47:11.703Z,99460.05
2023-04-02T04:49:51.457Z,99460.44
2023-04-02T04:52:42.007Z,99457.95
2023-04-02T04:55:40.992Z,99459.01
2023-04-02T04:58:22.594Z,99457.79
2023-04-02T05:01:09.667Z,99463.54
2023-04-02T05:03:52.028Z,99463.40
2023-04-02T05:06:39.814Z,99465.92
2023-04-02T05:09:19.166Z,99466.33
2023-04-02T05:12:32.896Z,99467.67
2023-04-02T05:15:16.710Z,99464.48
2023-04-02T05:18:35.005Z,99464.16
2023-04-02T05:21:22.857Z,99468.55
2023-04-02T05:23:56.748Z,99469.30
2023-04-02T05:26:30.776Z,99468.08
2023-04-02T05:29:12.357Z,99468.73
2023-04-02T05:32:03.682Z,99468.72
2023-04-02T05:34:35.322Z,99467.40
2023-04-02T05:37:07.257Z,99467.77
2023-04-02T05:39:48.208Z,99471.45
2023-04-02T05:42:43.986Z,99477.79
2023-04-02T05:45:24.334Z,99478.65
2023-04-02T05:48:00.282Z,99479.44
2023-04-02T05:50:37.909Z,99480.23
2023-04-02T05:53:12.456Z,99484.31
2023-04-02T05:55:45.325Z,99479.77
2023-04-02T06:01:21.855Z,99486.55
2023-04-02T06:04:08.572Z,99485.08
2023-04-02T06:06:39.868Z,99490.23
2023-04-02T06:09:23.178Z,99491.54
2023-04-02T06:12:02.765Z,99495.11
2023-04-02T06:14:31.631Z,99496.80
2023-04-02T06:17:00.013Z,99499.34
2023-04-02T06:19:35.146Z,99501.04
2023-04-02T06:22:37.833Z,99501.52
2023-04-02T06:25:16.383Z,99506.55
2023-04-02T06:27:46.520Z,99505.72
2023-04-02T06:30:19.597Z,99509.17
2023-04-02T06:32:50.967Z,99510.73
2023-04-02T06:35:20.862Z,99510.17
2023-04-02T06:38:01.792Z,99513.45
2023-04-02T06:40:40.860Z,99512.29
2023-04-02T06:43:45.612Z,99515.88
2023-04-02T06:46:35.075Z,99518.14
2023-04-02T06:49:24.857Z,99516.69
2023-04-02T06:51:57.969Z,99519.34
2023-04-02T06:54:30.254Z,99521.30
2023-04-02T06:57:03.724Z,99522.63
2023-04-02T06:59:41.112Z,99524.52
2023-04-02T07:02:25.671Z,99527.02
2023-04-02T07:04:58.123Z,99527.99
2023-04-02T07:07:32.863Z,99528.00
2023-04-02T07:10:05.218Z,99530.78
2023-04-02T07:12:35.648Z,99533.61
2023-04-02T07:15:07.440Z,99533.56
2023-04-02T07:17:37.288Z,99531.70
2023-04-02T07:20:07.437Z,99534.98
2023-04-02T07:22:36.368Z,99536.04
2023-04-02T07:25:06.746Z,99542.09
2023-04-02T07:27:40.096Z,99541.73
2023-04-02T07:30:09.229Z,99544.29
2023-04-02T07:32:38.876Z,99546.38
2023-04-02T07:35:08.439Z,99545.20
2023-04-02T07:37:38.588Z,99543.02
2023-04-02T07:40:15.704Z,99546.77
2023-04-02T07:42:44.565Z,99546.41
2023-04-02T07:45:13.626Z,99549.23
2023-04-02T07:47:43.025Z,99551.49
2023-04-02T07:50:11.263Z,99553.41
2023-04-02T07:52:42.848Z,99554.92
2023-04-02T07:55:21.282Z,99554.73
2023-04-02T07:57:53.030Z,99555.11
2023-04-02T08:00:23.514Z,99554.70
2023-04-02T08:02:54.267Z,99550.70
2023-04-02T08:05:23.177Z,99552.10
2023-04-02T08:07:55.772Z,99552.95
2023-04-02T08:10:24.471Z,99553.39
2023-04-02T08:12:57.582Z,99553.63
2023-04-02T08:15:27.880Z,99552.44
2023-04-02T08:17:56.453Z,99554.11
2023-04-02T08:20:26.568Z,99557.08
2023-04-02T08:22:55.291Z,99559.45
2023-04-02T08:25:28.016Z,99558.86
2023-04-02T08:27:57.964Z,99557.02
2023-04-02T08:30:26.620Z,99558.92
2023-04-02T08:33:00.556Z,99558.36
2023-04-02T08:35:29.344Z,99559.36
2023-04-02T08:37:58.629Z,99560.95
2023-04-02T08:40:37.132Z,99563.39
2023-04-02T08:43:43.191Z,99567.84
2023-04-02T08:46:31.420Z,99571.87
2023-04-02T08:49:13.166Z,99572.80
2023-04-02T08:51:43.165Z,99574.00
2023-04-02T08:54:26.090Z,99573.86
2023-04-02T08:56:57.319Z,99578.36
2023-04-02T08:59:30.557Z,99579.45
2023-04-02T09:02:36.863Z,99577.90
2023-04-02T09:05:07.427Z,99579.63
2023-04-02T09:07:39.591Z,99579.77
2023-04-02T09:10:24.138Z,99585.02
2023-04-02T09:13:07.146Z,99586.82
2023-04-02T09:15:36.184Z,99589.52
2023-04-02T09:18:25.239Z,99589.36
2023-04-02T09:21:03.932Z,99590.83
2023-04-02T09:23:37.093Z,99595.67
2023-04-02T09:26:33.383Z,99595.35
2023-04-02T09:32:53.943Z,99594.70
2023-04-02T09:35:26.821Z,99597.11
2023-04-02T09:38:08.053Z,99603.02
2023-04-02T09:40:43.365Z,99602.42
2023-04-02T09:43:22.208Z,99602.87
2023-04-02T09:46:02.607Z,99605.15
2023-04-02T09:48:32.864Z,99606.30
2023-04-02T09:51:16.669Z,99608.19
2023-04-02T09:53:46.441Z,99606.14
2023-04-02T09:56:16.933Z,99610.76
2023-04-02T09:58:46.201Z,99606.63
2023-04-02T10:03:19.045Z,99607.86
2023-04-02T10:05:47.815Z,99613.77
2023-04-02T10:08:28.463Z,99611.20
2023-04-02T10:11:00.249Z,99610.73
2023-04-02T10:13:55.996Z,99614.68
2023-04-02T10:16:33.411Z,99614.90
2023-04-02T10:19:14.941Z,99622.34
2023-04-02T10:21:44.041Z,99620.20
2023-04-02T10:24:14.166Z,99626.76
2023-04-02T10:27:03.433Z,99623.95
2023-04-02T10:29:32.247Z,99624.36
2023-04-02T10:32:11.861Z,99625.41
2023-04-02T10:35:03.702Z,99623.11
2023-04-02T10:37:47.295Z,99626.16
2023-04-02T10:40:26.772Z,99623.12
2023-04-02T10:43:17.536Z,99630.79
2023-04-02T10:46:23.041Z,99628.63
2023-04-02T10:49:29.994Z,99630.04
2023-04-02T10:51:59.626Z,99633.02
2023-04-02T10:54:38.273Z,99632.02
2023-04-02T10:57:12.239Z,99629.40
2023-04-02T10:59:47.100Z,99629.95
2023-04-02T11:02:23.517Z,99629.51
2023-04-02T11:04:51.891Z,99631.84
2023-04-02T11:07:24.885Z,99634.16
2023-04-02T11:09:55.075Z,99637.81
2023-04-02T11:12:49.426Z,99638.16
2023-04-02T11:15:19.543Z,99638.29
2023-04-02T11:17:47.837Z,99638.71
2023-04-02T11:21:00.030Z,99637.42
2023-04-02T11:23:31.134Z,99639.18
2023-04-02T11:26:38.419Z,99638.20
2023-04-02T11:29:29.749Z,99646.17
2023-04-02T11:32:42.848Z,99648.92
2023-04-02T11:35:33.456Z,99652.41
2023-04-02T11:38:04.409Z,99653.55
2023-04-02T11:41:07.982Z,99650.42
2023-04-02T11:43:37.590Z,99655.64
2023-04-02T11:46:32.781Z,99658.45
2023-04-02T11:49:38.426Z,99659.21
2023-04-02T11:52:21.146Z,99658.60
2023-04-02T11:55:16.845Z,99657.09
2023-04-02T11:57:52.453Z,99657.85
2023-04-02T12:00:39.470Z,99660.73
2023-04-02T12:03:42.195Z,99659.50
2023-04-02T12:06:19.683Z,99661.75
2023-04-02T12:09:05.012Z,99660.83
2023-04-02T12:11:38.139Z,99663.48
2023-04-02T12:14:48.841Z,99663.19
2023-04-02T12:17:21.996Z,99663.80
2023-04-02T12:19:54.685Z,99664.17
2023-04-02T12:22:25.698Z,99669.02
2023-04-02T12:25:22.245Z,99668.29
2023-04-02T12:28:18.118Z,99670.73
2023-04-02T12:30:47.247Z,99670.41
2023-04-02T12:33:27.434Z,99673.02
2023-04-02T12:35:59.828Z,99672.77
2023-04-02T12:38:29.453Z,99673.60
2023-04-02T12:41:03.758Z,99672.59
2023-04-02T12:43:34.844Z,99673.16
2023-04-02T12:46:05.474Z,99672.75
2023-04-02T12:48:35.076Z,99669.52
2023-04-02T12:51:03.805Z,99672.11
2023-04-02T12:53:35.630Z,99670.73
2023-04-02T12:56:04.478Z,99673.04
2023-04-02T12:58:40.004Z,99673.00
2023-04-02T13:01:18.634Z,99671.23
2023-04-02T13:04:08.491Z,99671.23
2023-04-02T13:06:39.074Z,99671.46
2023-04-02T13:09:32.223Z,99668.85
2023-04-02T13:12:03.522Z,99670.18
2023-04-02T13:14:33.379Z,99671.13
2023-04-02T13:17:01.683Z,99669.68
2023-04-02T13:19:32.472Z,99666.55
2023-04-02T13:22:02.026Z,99670.33
2023-04-02T13:24:32.237Z,99667.87
2023-04-02T13:27:01.950Z,99667.42
2023-04-02T13:29:34.427Z,99667.27
2023-04-02T13:32:08.045Z,99669.79
2023-04-02T13:34:36.508Z,99671.27
2023-04-02T13:37:13.088Z,99670.80
2023-04-02T13:39:42.949Z,99671.66
2023-04-02T13:42:11.402Z,99672.27
2023-04-02T13:44:39.642Z,99671.66
2023-04-02T13:47:11.615Z,99667.90
2023-04-02T13:49:40.554Z,99668.66
2023-04-02T13:52:11.482Z,99669.13
2023-04-02T13:54:49.161Z,99669.38
2023-04-02T13:57:18.757Z,99668.38
2023-04-02T13:59:47.019Z,99667.58
2023-04-02T14:02:20.662Z,99669.00
2023-04-02T14:04:51.070Z,99667.16
2023-04-02T14:07:26.380Z,99667.63
2023-04-02T14:10:10.221Z,99666.69
2023-04-02T14:13:26.997Z,99669.01
2023-04-02T14:16:42.074Z,99667.88
2023-04-02T14:19:18.243Z,99671.84
2023-04-02T14:22:05.676Z,99674.05
2023-04-02T14:24:54.251Z,99670.50
2023-04-02T14:28:03.140Z,99670.95
2023-04-02T14:31:09.874Z,99674.02
2023-04-02T14:33:44.171Z,99679.88
2023-04-02T14:36:46.924Z,99682.55
2023-04-02T14:39:58.264Z,99679.59
2023-04-02T14:43:04.988Z,99681.89
2023-04-02T14:45:59.960Z,99684.20
2023-04-02T14:48:58.844Z,99687.46
2023-04-02T14:51:48.116Z,99685.93
2023-04-02T14:54:54.113Z,99685.42
2023-04-02T14:57:31.880Z,99688.79
2023-04-02T15:00:29.417Z,99689.48
2023-04-02T15:03:53.300Z,99692.64
2023-04-02T15:06:35.844Z,99687.48
2023-04-02T15:09:27.582Z,99690.95
2023-04-02T15:12:27.725Z,99691.70
2023-04-02T15:15:49.464Z,99691.66
2023-04-02T15:18:33.310Z,99693.63
2023-04-02T15:21:46.310Z,99692.97
2023-04-02T15:25:07.227Z,99697.27
2023-04-02T15:28:34.220Z,99700.46
2023-04-02T15:31:16.236Z,99698.45
2023-04-02T15:34:47.678Z,99695.51
2023-04-02T15:37:56.733Z,99695.78
2023-04-02T15:40:43.300Z,99694.02
2023-04-02T15:43:14.241Z,99699.07
2023-04-02T15:45:59.098Z,99700.31
2023-04-02T15:48:36.378Z,99700.63
2023-04-02T15:51:32.296Z,99700.52
2023-04-02T15:54:12.826Z,99701.73
2023-04-02T15:56:50.836Z,99703.67
2023-04-02T15:59:54.490Z,99705.38
2023-04-02T16:02:41.483Z,99708.37
2023-04-02T16:05:28.311Z,99709.48
2023-04-02T16:08:02.531Z,99706.31
2023-04-02T16:10:42.883Z,99705.73
2023-04-02T16:13:15.040Z,99709.84
2023-04-02T16:16:09.930Z,99714.49
2023-04-02T16:18:53.504Z,99713.91
2023-04-02T16:21:23.722Z,99715.66
2023-04-02T16:23:53.182Z,99720.81
2023-04-02T16:27:20.171Z,99723.30
2023-04-02T16:29:58.178Z,99723.95
2023-04-02T16:33:00.213Z,99727.45
2023-04-02T16:38:22.898Z,99726.77
2023-04-02T16:41:07.829Z,99729.61
2023-04-02T16:44:04.724Z,99726.75
2023-04-02T16:46:54.338Z,99728.94
2023-04-02T16:49:32.765Z,99730.23
2023-04-02T16:52:23.913Z,99731.30
2023-04-02T16:55:11.708Z,99732.16
2023-04-02T16:58:07.637Z,99736.01
2023-04-02T17:00:41.927Z,99736.77
2023-04-02T17:03:34.887Z,99741.30
2023-04-02T17:06:15.075Z,99746.91
2023-04-02T17:08:47.715Z,99746.02
2023-04-02T17:11:25.384Z,99752.28
2023-04-02T17:14:28.462Z,99751.83
2023-04-02T17:17:01.443Z,99750.24
2023-04-02T17:19:31.505Z,99755.16
2023-04-02T17:22:01.721Z,99754.82
2023-04-02T17:24:44.925Z,99753.41
2023-04-02T17:27:34.130Z,99757.90
2023-04-02T17:30:15.563Z,99762.39
2023-04-02T17:32:45.130Z,99764.91
2023-04-02T17:35:18.113Z,99765.77
2023-04-02T17:37:58.542Z,99769.61
2023-04-02T17:40:41.529Z,99770.79
2023-04-02T17:43:31.619Z,99775.64
2023-04-02T17:46:25.125Z,99778.30
2023-04-02T17:49:01.335Z,99779.17
2023-04-02T17:51:42.493Z,99780.61
2023-04-02T17:54:31.795Z,99782.79
2023-04-02T17:57:33.909Z,99782.95
2023-04-02T18:00:23.231Z,99785.09
2023-04-02T18:03:03.782Z,99787.16
2023-04-02T18:05:46.301Z,99786.30
2023-04-02T18:08:22.680Z,99787.64
2023-04-02T18:11:03.634Z,99788.06
2023-04-02T18:13:36.378Z,99789.08
2023-04-02T18:16:08.351Z,99788.98
2023-04-02T18:19:11.087Z,99785.93
2023-04-02T18:21:39.833Z,99786.89
2023-04-02T18:24:21.280Z,99787.70
2023-04-02T18:26:56.442Z,99784.55
2023-04-02T18:29:31.336Z,99788.13
2023-04-02T18:32:34.162Z,99785.99
2023-04-02T18:35:14.862Z,99787.75
2023-04-02T18:37:50.993Z,99788.66
2023-04-02T18:40:25.792Z,99791.90
2023-04-02T18:43:33.750Z,99791.52
2023-04-02T18:46:23.956Z,99791.98
2023-04-02T18:48:57.894Z,99789.81
2023-04-02T18:51:28.554Z,99794.02
2023-04-02T18:54:09.117Z,99793.45
2023-04-02T18:56:39.698Z,99794.24
2023-04-02T18:59:35.320Z,99793.45
2023-04-02T19:02:33.611Z,99793.43
2023-04-02T19:05:28.645Z,99794.43
2023-04-02T19:08:20.706Z,99795.98
2023-04-02T19:10:53.616Z,99792.52
2023-04-02T19:13:27.005Z,99795.77
2023-04-02T19:16:22.657Z,99795.98
2023-04-02T19:19:16.064Z,99796.67
2023-04-02T19:22:20.277Z,99793.58
2023-04-02T19:25:03.234Z,99795.61
2023-04-02T19:28:13.482Z,99795.29
2023-04-02T19:31:04.091Z,99798.05
2023-04-02T19:33:41.944Z,99799.18
2023-04-02T19:36:33.012Z,99797.52
2023-04-02T19:39:17.263Z,99796.46
2023-04-02T19:41:54.456Z,99799.28
2023-04-02T19:44:31.064Z,99800.73
2023-04-02T19:47:22.868Z,99797.38
2023-04-02T19:49:51.900Z,99800.09
2023-04-02T19:52:22.258Z,99801.05
2023-04-02T19:54:57.529Z,99800.61
2023-04-02T19:57:30.653Z,99804.77
2023-04-02T19:59:59.808Z,99803.02
2023-04-02T20:02:30.104Z,99802.11
2023-04-02T20:05:02.580Z,99803.71
2023-04-02T20:07:53.802Z,99804.23
2023-04-02T20:10:23.139Z,99801.10
2023-04-02T20:12:52.467Z,99803.19
2023-04-02T20:15:24.587Z,99800.39
2023-04-02T20:17:52.822Z,99798.23
2023-04-02T20:20:25.383Z,99801.11
2023-04-02T20:22:54.033Z,99800.09
2023-04-02T20:25:22.853Z,99797.33
2023-04-02T20:27:58.888Z,99796.52
2023-04-02T20:30:33.956Z,99797.16
2023-04-02T20:33:04.550Z,99798.27
2023-04-02T20:35:42.005Z,99797.37
2023-04-02T20:38:18.664Z,99796.98
2023-04-02T20:41:01.159Z,99797.52
2023-04-02T20:43:36.201Z,99797.48
2023-04-02T20:46:06.026Z,99798.74
2023-04-02T20:48:35.306Z,99797.85
2023-04-02T20:51:05.320Z,99797.95
2023-04-02T20:53:35.615Z,99801.15
2023-04-02T20:56:07.951Z,99799.93
2023-04-02T20:58:37.426Z,99799.61
2023-04-02T21:01:23.123Z,99799.55
2023-04-02T21:03:56.887Z,99797.20
2023-04-02T21:06:26.574Z,99798.12
2023-04-02T21:08:54.825Z,99796.57
2023-04-02T21:11:23.938Z,99798.86
2023-04-02T21:13:52.997Z,99796.67
2023-04-02T21:16:23.149Z,99796.95
2023-04-02T21:18:52.915Z,99797.80
2023-04-02T21:21:21.412Z,99797.84
2023-04-02T21:23:59.632Z,99794.71
2023-04-02T21:26:29.031Z,99798.38
2023-04-02T21:28:58.882Z,99794.76
2023-04-02T21:31:31.130Z,99793.85
2023-04-02T21:34:07.381Z,99794.27
2023-04-02T21:36:37.742Z,99793.90
2023-04-02T21:39:08.417Z,99792.41
2023-04-02T21:41:39.090Z,99793.58
2023-04-02T21:44:08.574Z,99791.88
2023-04-02T21:46:38.762Z,99791.39
2023-04-02T21:49:10.599Z,99790.31
2023-04-02T21:51:39.681Z,99790.52
2023-04-02T21:54:09.197Z,99785.41
2023-04-02T21:56:40.092Z,99785.40
2023-04-02T21:59:09.347Z,99783.64
2023-04-02T22:01:40.209Z,99784.71
2023-04-02T22:04:09.988Z,99782.73
2023-04-02T22:06:39.912Z,99782.73
2023-04-02T22:09:13.015Z,99782.41
2023-04-02T22:11:44.062Z,99784.27
2023-04-02T22:14:13.000Z,99784.36
2023-04-02T22:16:41.734Z,99782.83
2023-04-02T22:19:14.137Z,99783.20
2023-04-02T22:21:42.660Z,99785.39
2023-04-02T22:24:19.100Z,99784.73
2023-04-02T22:26:47.422Z,99785.65
2023-04-02T22:29:15.980Z,99785.13
2023-04-02T22:31:45.050Z,99784.70
2023-04-02T22:34:13.991Z,99783.11
2023-04-02T22:36:42.433Z,99782.25
2023-04-02T22:39:12.481Z,99783.44
2023-04-02T22:41:41.691Z,99778.74
2023-04-02T22:44:15.082Z,99776.71
2023-04-02T22:46:43.384Z,99776.92
2023-04-02T22:49:11.912Z,99773.32
2023-04-02T22:51:40.274Z,99775.23
2023-04-02T22:54:08.932Z,99773.69
2023-04-02T22:56:37.719Z,99776.67
2023-04-02T22:59:06.281Z,99774.16
2023-04-02T23:01:36.183Z,99774.71
2023-04-02T23:04:05.569Z,99774.86
2023-04-02T23:06:35.105Z,99774.23
2023-04-02T23:09:04.349Z,99770.91
2023-04-02T23:11:35.128Z,99766.40
2023-04-02T23:14:03.836Z,99767.61
2023-04-02T23:16:32.545Z,99764.95
2023-04-02T23:19:01.644Z,99765.91
2023-04-02T23:21:30.135Z,99763.52
2023-04-02T23:23:59.304Z,99763.30
2023-04-02T23:26:29.800Z,99760.21
2023-04-02T23:28:59.376Z,99760.80
2023-04-02T23:31:28.167Z,99760.59
2023-04-02T23:33:56.843Z,99760.48
2023-04-02T23:36:29.858Z,99759.48
2023-04-02T23:39:01.857Z,99761.55
2023-04-02T23:41:31.135Z,99757.55
2023-04-02T23:43:59.408Z,99759.52
2023-04-02T23:46:29.045Z,99758.14
2023-04-02T23:48:57.551Z,99754.30
2023-04-02T23:51:26.291Z,99752.92
2023-04-02T23:53:55.723Z,99753.35
2023-04-02T23:56:24.537Z,99752.70
2023-04-02T23:58:52.971Z,99753.11
